sensor_id;sensor_type;location;lat;lon;timestamp;P1;durP1;ratioP1;P2;durP2;ratioP2
22965;SDS011;11649;48.090;9.754;2023-03-01T00:00:08;21.02;;;13.70;;
22965;SDS011;11649;48.090;9.754;2023-03-01T00:02:35;23.58;;;14.07;;
22965;SDS011;11649;48.090;9.754;2023-03-01T00:05:03;22.10;;;14.18;;
22965;SDS011;11649;48.090;9.754;2023-03-01T00:07:30;25.75;;;15.02;;
22965;SDS011;11649;48.090;9.754;2023-03-01T00:09:57;28.35;;;15.63;;
22965;SDS011;11649;48.090;9.754;2023-03-01T00:12:23;25.25;;;15.00;;
22965;SDS011;11649;48.090;9.754;2023-03-01T00:14:50;22.58;;;14.90;;
22965;SDS011;11649;48.090;9.754;2023-03-01T00:17:17;24.95;;;15.30;;
22965;SDS011;11649;48.090;9.754;2023-03-01T00:19:44;22.15;;;14.38;;
22965;SDS011;11649;48.090;9.754;2023-03-01T00:22:10;24.30;;;14.73;;
22965;SDS011;11649;48.090;9.754;2023-03-01T00:24:37;23.30;;;14.32;;
22965;SDS011;11649;48.090;9.754;2023-03-01T00:27:04;22.90;;;15.00;;
22965;SDS011;11649;48.090;9.754;2023-03-01T00:29:30;23.77;;;15.00;;
22965;SDS011;11649;48.090;9.754;2023-03-01T00:31:57;23.30;;;14.77;;
22965;SDS011;11649;48.090;9.754;2023-03-01T00:34:24;23.33;;;14.85;;
22965;SDS011;11649;48.090;9.754;2023-03-01T00:36:51;23.13;;;15.02;;
22965;SDS011;11649;48.090;9.754;2023-03-01T00:39:17;23.23;;;15.00;;
22965;SDS011;11649;48.090;9.754;2023-03-01T00:41:44;24.83;;;14.98;;
22965;SDS011;11649;48.090;9.754;2023-03-01T00:44:11;22.10;;;13.85;;
22965;SDS011;11649;48.090;9.754;2023-03-01T00:46:38;22.38;;;14.85;;
22965;SDS011;11649;48.090;9.754;2023-03-01T00:49:05;20.92;;;14.77;;
22965;SDS011;11649;48.090;9.754;2023-03-01T00:51:32;21.42;;;14.70;;
22965;SDS011;11649;48.090;9.754;2023-03-01T00:54:00;22.15;;;14.95;;
22965;SDS011;11649;48.090;9.754;2023-03-01T00:56:28;22.42;;;14.70;;
22965;SDS011;11649;48.090;9.754;2023-03-01T00:58:56;24.23;;;15.15;;
22965;SDS011;11649;48.090;9.754;2023-03-01T01:01:24;24.27;;;15.50;;
22965;SDS011;11649;48.090;9.754;2023-03-01T01:03:57;25.77;;;15.40;;
22965;SDS011;11649;48.090;9.754;2023-03-01T01:06:31;22.08;;;14.73;;
22965;SDS011;11649;48.090;9.754;2023-03-01T01:09:03;24.83;;;14.85;;
22965;SDS011;11649;48.090;9.754;2023-03-01T01:11:32;24.42;;;15.23;;
22965;SDS011;11649;48.090;9.754;2023-03-01T01:13:59;23.40;;;14.63;;
22965;SDS011;11649;48.090;9.754;2023-03-01T01:16:26;22.33;;;15.00;;
22965;SDS011;11649;48.090;9.754;2023-03-01T01:18:55;23.65;;;15.52;;
22965;SDS011;11649;48.090;9.754;2023-03-01T01:21:22;23.73;;;14.85;;
22965;SDS011;11649;48.090;9.754;2023-03-01T01:23:50;23.27;;;14.55;;
22965;SDS011;11649;48.090;9.754;2023-03-01T01:26:19;25.45;;;15.40;;
22965;SDS011;11649;48.090;9.754;2023-03-01T01:28:50;25.67;;;15.48;;
22965;SDS011;11649;48.090;9.754;2023-03-01T01:31:18;21.88;;;14.70;;
22965;SDS011;11649;48.090;9.754;2023-03-01T01:33:45;22.75;;;14.88;;
22965;SDS011;11649;48.090;9.754;2023-03-01T01:36:12;23.80;;;14.98;;
22965;SDS011;11649;48.090;9.754;2023-03-01T01:38:39;25.10;;;15.80;;
22965;SDS011;11649;48.090;9.754;2023-03-01T01:41:09;25.90;;;16.35;;
22965;SDS011;11649;48.090;9.754;2023-03-01T01:43:40;23.15;;;15.00;;
22965;SDS011;11649;48.090;9.754;2023-03-01T01:48:57;24.45;;;15.45;;
22965;SDS011;11649;48.090;9.754;2023-03-01T01:51:28;25.60;;;15.95;;
22965;SDS011;11649;48.090;9.754;2023-03-01T01:54:12;26.63;;;16.23;;
22965;SDS011;11649;48.090;9.754;2023-03-01T01:56:42;25.27;;;15.75;;
22965;SDS011;11649;48.090;9.754;2023-03-01T01:59:14;27.40;;;16.45;;
22965;SDS011;11649;48.090;9.754;2023-03-01T02:01:41;25.00;;;16.00;;
22965;SDS011;11649;48.090;9.754;2023-03-01T02:04:09;25.08;;;15.43;;
22965;SDS011;11649;48.090;9.754;2023-03-01T02:06:37;24.73;;;16.38;;
22965;SDS011;11649;48.090;9.754;2023-03-01T02:09:11;25.73;;;15.95;;
22965;SDS011;11649;48.090;9.754;2023-03-01T02:11:41;26.63;;;16.20;;
22965;SDS011;11649;48.090;9.754;2023-03-01T02:14:09;25.80;;;15.95;;
22965;SDS011;11649;48.090;9.754;2023-03-01T02:16:36;27.23;;;16.55;;
22965;SDS011;11649;48.090;9.754;2023-03-01T02:19:03;26.77;;;16.95;;
22965;SDS011;11649;48.090;9.754;2023-03-01T02:32:54;27.00;;;16.13;;
22965;SDS011;11649;48.090;9.754;2023-03-01T02:35:30;28.85;;;16.48;;
22965;SDS011;11649;48.090;9.754;2023-03-01T02:38:00;25.13;;;15.98;;
22965;SDS011;11649;48.090;9.754;2023-03-01T02:40:30;27.15;;;17.23;;
22965;SDS011;11649;48.090;9.754;2023-03-01T02:43:00;24.95;;;16.05;;
22965;SDS011;11649;48.090;9.754;2023-03-01T02:45:27;26.55;;;16.58;;
22965;SDS011;11649;48.090;9.754;2023-03-01T02:47:54;28.35;;;17.08;;
22965;SDS011;11649;48.090;9.754;2023-03-01T02:50:33;27.55;;;17.42;;
22965;SDS011;11649;48.090;9.754;2023-03-01T02:53:27;28.30;;;18.05;;
22965;SDS011;11649;48.090;9.754;2023-03-01T02:55:59;24.45;;;16.65;;
22965;SDS011;11649;48.090;9.754;2023-03-01T02:58:26;29.38;;;16.98;;
22965;SDS011;11649;48.090;9.754;2023-03-01T03:00:53;26.23;;;17.08;;
22965;SDS011;11649;48.090;9.754;2023-03-01T03:03:20;27.20;;;16.75;;
22965;SDS011;11649;48.090;9.754;2023-03-01T03:05:48;26.33;;;17.02;;
22965;SDS011;11649;48.090;9.754;2023-03-01T03:08:14;29.27;;;18.52;;
22965;SDS011;11649;48.090;9.754;2023-03-01T03:10:50;26.65;;;17.45;;
22965;SDS011;11649;48.090;9.754;2023-03-01T03:13:17;27.30;;;16.65;;
22965;SDS011;11649;48.090;9.754;2023-03-01T03:15:45;28.30;;;17.35;;
22965;SDS011;11649;48.090;9.754;2023-03-01T03:18:13;24.90;;;16.60;;
22965;SDS011;11649;48.090;9.754;2023-03-01T03:20:42;26.85;;;18.02;;
22965;SDS011;11649;48.090;9.754;2023-03-01T03:23:10;28.08;;;17.77;;
22965;SDS011;11649;48.090;9.754;2023-03-01T03:25:37;27.02;;;17.27;;
22965;SDS011;11649;48.090;9.754;2023-03-01T03:28:05;29.60;;;17.65;;
22965;SDS011;11649;48.090;9.754;2023-03-01T03:30:37;30.25;;;18.45;;
22965;SDS011;11649;48.090;9.754;2023-03-01T03:33:05;31.05;;;18.10;;
22965;SDS011;11649;48.090;9.754;2023-03-01T03:35:37;30.60;;;18.40;;
22965;SDS011;11649;48.090;9.754;2023-03-01T03:38:07;29.83;;;18.20;;
22965;SDS011;11649;48.090;9.754;2023-03-01T03:40:46;31.13;;;18.10;;
22965;SDS011;11649;48.090;9.754;2023-03-01T03:43:18;30.67;;;17.85;;
22965;SDS011;11649;48.090;9.754;2023-03-01T03:45:47;29.77;;;18.50;;
22965;SDS011;11649;48.090;9.754;2023-03-01T03:48:15;28.13;;;18.42;;
22965;SDS011;11649;48.090;9.754;2023-03-01T03:50:47;27.27;;;18.15;;
22965;SDS011;11649;48.090;9.754;2023-03-01T03:53:24;28.17;;;17.85;;
22965;SDS011;11649;48.090;9.754;2023-03-01T03:55:52;31.45;;;18.92;;
22965;SDS011;11649;48.090;9.754;2023-03-01T03:58:20;29.48;;;18.45;;
22965;SDS011;11649;48.090;9.754;2023-03-01T04:00:50;30.55;;;18.52;;
22965;SDS011;11649;48.090;9.754;2023-03-01T04:03:19;28.92;;;17.77;;
22965;SDS011;11649;48.090;9.754;2023-03-01T04:05:46;30.65;;;18.70;;
22965;SDS011;11649;48.090;9.754;2023-03-01T04:08:14;28.42;;;18.50;;
22965;SDS011;11649;48.090;9.754;2023-03-01T04:10:41;27.45;;;18.67;;
22965;SDS011;11649;48.090;9.754;2023-03-01T04:13:12;26.85;;;18.20;;
22965;SDS011;11649;48.090;9.754;2023-03-01T04:15:41;27.45;;;18.30;;
22965;SDS011;11649;48.090;9.754;2023-03-01T04:18:15;29.77;;;19.13;;
22965;SDS011;11649;48.090;9.754;2023-03-01T04:20:42;31.35;;;18.63;;
22965;SDS011;11649;48.090;9.754;2023-03-01T04:23:15;28.90;;;18.75;;
22965;SDS011;11649;48.090;9.754;2023-03-01T04:25:53;31.52;;;18.58;;
22965;SDS011;11649;48.090;9.754;2023-03-01T04:28:41;29.85;;;18.45;;
22965;SDS011;11649;48.090;9.754;2023-03-01T04:31:13;29.95;;;18.73;;
22965;SDS011;11649;48.090;9.754;2023-03-01T04:33:45;26.98;;;18.25;;
22965;SDS011;11649;48.090;9.754;2023-03-01T04:36:21;28.00;;;18.67;;
22965;SDS011;11649;48.090;9.754;2023-03-01T04:38:50;29.85;;;18.25;;
22965;SDS011;11649;48.090;9.754;2023-03-01T04:41:18;30.75;;;19.13;;
22965;SDS011;11649;48.090;9.754;2023-03-01T04:43:47;26.65;;;18.38;;
22965;SDS011;11649;48.090;9.754;2023-03-01T04:46:15;30.65;;;19.38;;
22965;SDS011;11649;48.090;9.754;2023-03-01T04:48:44;27.13;;;18.02;;
22965;SDS011;11649;48.090;9.754;2023-03-01T04:51:13;28.65;;;18.77;;
22965;SDS011;11649;48.090;9.754;2023-03-01T04:53:41;30.60;;;18.63;;
22965;SDS011;11649;48.090;9.754;2023-03-01T04:56:08;29.35;;;18.88;;
22965;SDS011;11649;48.090;9.754;2023-03-01T04:58:35;31.83;;;18.60;;
22965;SDS011;11649;48.090;9.754;2023-03-01T05:01:07;27.33;;;18.17;;
22965;SDS011;11649;48.090;9.754;2023-03-01T05:03:42;31.10;;;19.35;;
22965;SDS011;11649;48.090;9.754;2023-03-01T05:06:10;27.88;;;18.20;;
22965;SDS011;11649;48.090;9.754;2023-03-01T05:08:38;30.02;;;19.10;;
22965;SDS011;11649;48.090;9.754;2023-03-01T05:11:06;29.88;;;18.98;;
22965;SDS011;11649;48.090;9.754;2023-03-01T05:13:35;30.67;;;19.38;;
22965;SDS011;11649;48.090;9.754;2023-03-01T05:16:03;29.45;;;19.27;;
22965;SDS011;11649;48.090;9.754;2023-03-01T05:18:31;29.27;;;18.30;;
22965;SDS011;11649;48.090;9.754;2023-03-01T05:21:07;28.50;;;18.38;;
22965;SDS011;11649;48.090;9.754;2023-03-01T05:23:38;28.42;;;18.83;;
22965;SDS011;11649;48.090;9.754;2023-03-01T05:26:07;30.25;;;18.38;;
22965;SDS011;11649;48.090;9.754;2023-03-01T05:28:52;28.40;;;17.73;;
22965;SDS011;11649;48.090;9.754;2023-03-01T05:31:25;31.10;;;19.27;;
22965;SDS011;11649;48.090;9.754;2023-03-01T05:33:51;28.45;;;18.42;;
22965;SDS011;11649;48.090;9.754;2023-03-01T05:36:19;30.35;;;18.63;;
22965;SDS011;11649;48.090;9.754;2023-03-01T05:38:45;30.33;;;18.95;;
22965;SDS011;11649;48.090;9.754;2023-03-01T05:41:13;29.30;;;18.13;;
22965;SDS011;11649;48.090;9.754;2023-03-01T05:43:42;28.83;;;19.25;;
22965;SDS011;11649;48.090;9.754;2023-03-01T05:46:11;28.15;;;18.80;;
22965;SDS011;11649;48.090;9.754;2023-03-01T05:48:39;29.02;;;18.88;;
22965;SDS011;11649;48.090;9.754;2023-03-01T05:51:06;31.55;;;19.70;;
22965;SDS011;11649;48.090;9.754;2023-03-01T05:53:33;30.17;;;19.23;;
22965;SDS011;11649;48.090;9.754;2023-03-01T05:56:02;32.45;;;19.27;;
22965;SDS011;11649;48.090;9.754;2023-03-01T05:58:30;30.48;;;18.88;;
22965;SDS011;11649;48.090;9.754;2023-03-01T06:00:56;27.73;;;18.17;;
22965;SDS011;11649;48.090;9.754;2023-03-01T06:03:23;28.73;;;18.85;;
22965;SDS011;11649;48.090;9.754;2023-03-01T06:05:55;29.05;;;19.08;;
22965;SDS011;11649;48.090;9.754;2023-03-01T06:08:22;27.83;;;17.95;;
22965;SDS011;11649;48.090;9.754;2023-03-01T06:10:50;29.52;;;18.83;;
22965;SDS011;11649;48.090;9.754;2023-03-01T06:13:17;29.52;;;18.60;;
22965;SDS011;11649;48.090;9.754;2023-03-01T06:15:43;28.38;;;18.70;;
22965;SDS011;11649;48.090;9.754;2023-03-01T06:18:10;34.30;;;19.15;;
22965;SDS011;11649;48.090;9.754;2023-03-01T06:20:37;29.58;;;19.17;;
22965;SDS011;11649;48.090;9.754;2023-03-01T06:23:04;32.08;;;19.02;;
22965;SDS011;11649;48.090;9.754;2023-03-01T06:25:31;30.15;;;18.95;;
22965;SDS011;11649;48.090;9.754;2023-03-01T06:27:58;29.27;;;18.08;;
22965;SDS011;11649;48.090;9.754;2023-03-01T06:30:26;32.25;;;19.60;;
22965;SDS011;11649;48.090;9.754;2023-03-01T06:32:52;30.10;;;19.30;;
22965;SDS011;11649;48.090;9.754;2023-03-01T06:35:26;30.55;;;18.77;;
22965;SDS011;11649;48.090;9.754;2023-03-01T06:37:56;29.17;;;18.15;;
22965;SDS011;11649;48.090;9.754;2023-03-01T06:40:24;28.20;;;18.45;;
22965;SDS011;11649;48.090;9.754;2023-03-01T06:42:51;27.50;;;18.23;;
22965;SDS011;11649;48.090;9.754;2023-03-01T06:45:18;28.73;;;18.85;;
22965;SDS011;11649;48.090;9.754;2023-03-01T06:47:46;27.20;;;18.13;;
22965;SDS011;11649;48.090;9.754;2023-03-01T06:50:14;30.05;;;19.48;;
22965;SDS011;11649;48.090;9.754;2023-03-01T06:52:42;30.33;;;18.60;;
22965;SDS011;11649;48.090;9.754;2023-03-01T06:55:11;29.05;;;18.35;;
22965;SDS011;11649;48.090;9.754;2023-03-01T06:57:40;28.08;;;18.10;;
22965;SDS011;11649;48.090;9.754;2023-03-01T07:00:07;27.27;;;18.15;;
22965;SDS011;11649;48.090;9.754;2023-03-01T07:02:34;30.77;;;18.50;;
22965;SDS011;11649;48.090;9.754;2023-03-01T07:05:01;30.23;;;18.23;;
22965;SDS011;11649;48.090;9.754;2023-03-01T07:07:28;27.52;;;18.13;;
22965;SDS011;11649;48.090;9.754;2023-03-01T07:09:55;30.83;;;19.05;;
22965;SDS011;11649;48.090;9.754;2023-03-01T07:12:22;31.00;;;17.70;;
22965;SDS011;11649;48.090;9.754;2023-03-01T07:14:48;28.77;;;18.17;;
22965;SDS011;11649;48.090;9.754;2023-03-01T07:17:15;28.13;;;18.35;;
22965;SDS011;11649;48.090;9.754;2023-03-01T07:19:42;28.65;;;18.67;;
22965;SDS011;11649;48.090;9.754;2023-03-01T07:22:09;27.92;;;18.58;;
22965;SDS011;11649;48.090;9.754;2023-03-01T07:24:35;27.92;;;18.35;;
22965;SDS011;11649;48.090;9.754;2023-03-01T07:27:02;32.33;;;19.52;;
22965;SDS011;11649;48.090;9.754;2023-03-01T07:29:29;31.10;;;18.45;;
22965;SDS011;11649;48.090;9.754;2023-03-01T07:31:56;29.50;;;18.25;;
22965;SDS011;11649;48.090;9.754;2023-03-01T07:34:23;27.83;;;19.08;;
22965;SDS011;11649;48.090;9.754;2023-03-01T07:36:50;30.80;;;18.77;;
22965;SDS011;11649;48.090;9.754;2023-03-01T07:39:17;28.60;;;18.60;;
22965;SDS011;11649;48.090;9.754;2023-03-01T07:41:44;28.80;;;18.40;;
22965;SDS011;11649;48.090;9.754;2023-03-01T07:44:11;28.38;;;18.48;;
22965;SDS011;11649;48.090;9.754;2023-03-01T07:46:38;31.25;;;19.27;;
22965;SDS011;11649;48.090;9.754;2023-03-01T07:49:05;27.20;;;18.65;;
22965;SDS011;11649;48.090;9.754;2023-03-01T07:51:33;29.05;;;18.77;;
22965;SDS011;11649;48.090;9.754;2023-03-01T07:54:00;33.47;;;18.73;;
22965;SDS011;11649;48.090;9.754;2023-03-01T07:56:27;28.77;;;18.33;;
22965;SDS011;11649;48.090;9.754;2023-03-01T07:58:54;31.63;;;18.98;;
22965;SDS011;11649;48.090;9.754;2023-03-01T08:01:21;29.88;;;18.80;;
22965;SDS011;11649;48.090;9.754;2023-03-01T08:03:48;29.90;;;18.98;;
22965;SDS011;11649;48.090;9.754;2023-03-01T08:06:16;29.17;;;18.55;;
22965;SDS011;11649;48.090;9.754;2023-03-01T08:08:43;28.65;;;18.85;;
22965;SDS011;11649;48.090;9.754;2023-03-01T08:11:11;30.73;;;19.50;;
22965;SDS011;11649;48.090;9.754;2023-03-01T08:13:39;29.45;;;19.10;;
22965;SDS011;11649;48.090;9.754;2023-03-01T08:16:08;30.38;;;19.33;;
22965;SDS011;11649;48.090;9.754;2023-03-01T08:18:39;29.92;;;18.63;;
22965;SDS011;11649;48.090;9.754;2023-03-01T08:21:10;29.60;;;18.10;;
22965;SDS011;11649;48.090;9.754;2023-03-01T08:23:38;30.25;;;19.20;;
22965;SDS011;11649;48.090;9.754;2023-03-01T08:26:11;28.67;;;19.10;;
22965;SDS011;11649;48.090;9.754;2023-03-01T08:28:43;28.95;;;18.40;;
22965;SDS011;11649;48.090;9.754;2023-03-01T08:33:51;29.95;;;18.67;;
22965;SDS011;11649;48.090;9.754;2023-03-01T08:36:22;29.33;;;18.60;;
22965;SDS011;11649;48.090;9.754;2023-03-01T08:38:51;28.02;;;18.27;;
22965;SDS011;11649;48.090;9.754;2023-03-01T08:41:18;30.20;;;18.83;;
22965;SDS011;11649;48.090;9.754;2023-03-01T08:43:45;33.47;;;18.38;;
22965;SDS011;11649;48.090;9.754;2023-03-01T08:46:12;30.05;;;18.65;;
22965;SDS011;11649;48.090;9.754;2023-03-01T08:48:39;28.98;;;19.02;;
22965;SDS011;11649;48.090;9.754;2023-03-01T08:53:37;29.30;;;19.20;;
22965;SDS011;11649;48.090;9.754;2023-03-01T08:56:03;32.30;;;19.73;;
22965;SDS011;11649;48.090;9.754;2023-03-01T08:58:30;32.03;;;19.42;;
22965;SDS011;11649;48.090;9.754;2023-03-01T09:00:58;28.35;;;18.75;;
22965;SDS011;11649;48.090;9.754;2023-03-01T09:03:25;27.10;;;17.60;;
22965;SDS011;11649;48.090;9.754;2023-03-01T09:05:52;27.35;;;18.63;;
22965;SDS011;11649;48.090;9.754;2023-03-01T09:08:19;29.05;;;17.85;;
22965;SDS011;11649;48.090;9.754;2023-03-01T09:10:46;27.23;;;18.02;;
22965;SDS011;11649;48.090;9.754;2023-03-01T09:13:13;26.95;;;18.08;;
22965;SDS011;11649;48.090;9.754;2023-03-01T09:15:40;30.20;;;19.15;;
22965;SDS011;11649;48.090;9.754;2023-03-01T09:18:06;25.27;;;17.80;;
22965;SDS011;11649;48.090;9.754;2023-03-01T09:20:33;32.13;;;19.83;;
22965;SDS011;11649;48.090;9.754;2023-03-01T09:23:00;30.77;;;19.10;;
22965;SDS011;11649;48.090;9.754;2023-03-01T09:25:27;28.58;;;18.85;;
22965;SDS011;11649;48.090;9.754;2023-03-01T09:27:54;27.70;;;18.65;;
22965;SDS011;11649;48.090;9.754;2023-03-01T09:30:21;27.80;;;19.13;;
22965;SDS011;11649;48.090;9.754;2023-03-01T09:32:48;28.77;;;19.23;;
22965;SDS011;11649;48.090;9.754;2023-03-01T09:35:15;29.23;;;19.27;;
22965;SDS011;11649;48.090;9.754;2023-03-01T09:37:41;30.05;;;18.23;;
22965;SDS011;11649;48.090;9.754;2023-03-01T09:40:15;27.23;;;18.17;;
22965;SDS011;11649;48.090;9.754;2023-03-01T09:43:05;29.20;;;18.25;;
22965;SDS011;11649;48.090;9.754;2023-03-01T09:45:40;20.67;;;14.07;;
22965;SDS011;11649;48.090;9.754;2023-03-01T09:48:13;30.55;;;19.05;;
22965;SDS011;11649;48.090;9.754;2023-03-01T09:50:44;27.73;;;18.63;;
22965;SDS011;11649;48.090;9.754;2023-03-01T09:53:15;29.50;;;18.92;;
22965;SDS011;11649;48.090;9.754;2023-03-01T09:55:46;28.95;;;18.05;;
22965;SDS011;11649;48.090;9.754;2023-03-01T10:04:12;30.23;;;18.98;;
22965;SDS011;11649;48.090;9.754;2023-03-01T10:09:40;27.63;;;18.23;;
22965;SDS011;11649;48.090;9.754;2023-03-01T10:12:13;23.20;;;15.02;;
22965;SDS011;11649;48.090;9.754;2023-03-01T10:17:57;29.77;;;18.45;;
22965;SDS011;11649;48.090;9.754;2023-03-01T10:23:28;33.42;;;19.70;;
22965;SDS011;11649;48.090;9.754;2023-03-01T10:29:06;31.42;;;19.25;;
22965;SDS011;11649;48.090;9.754;2023-03-01T10:36:43;29.27;;;19.10;;
22965;SDS011;11649;48.090;9.754;2023-03-01T10:41:55;30.95;;;19.25;;
22965;SDS011;11649;48.090;9.754;2023-03-01T10:44:43;31.08;;;19.08;;
22965;SDS011;11649;48.090;9.754;2023-03-01T10:47:19;30.88;;;18.60;;
22965;SDS011;11649;48.090;9.754;2023-03-01T10:49:52;28.38;;;18.05;;
22965;SDS011;11649;48.090;9.754;2023-03-01T10:52:20;30.27;;;18.88;;
22965;SDS011;11649;48.090;9.754;2023-03-01T10:54:53;32.30;;;20.10;;
22965;SDS011;11649;48.090;9.754;2023-03-01T10:57:29;28.58;;;18.83;;
22965;SDS011;11649;48.090;9.754;2023-03-01T11:00:18;31.88;;;19.83;;
22965;SDS011;11649;48.090;9.754;2023-03-01T11:02:49;31.10;;;19.02;;
22965;SDS011;11649;48.090;9.754;2023-03-01T11:05:44;29.33;;;19.25;;
22965;SDS011;11649;48.090;9.754;2023-03-01T11:08:31;28.58;;;18.73;;
22965;SDS011;11649;48.090;9.754;2023-03-01T11:11:04;30.70;;;19.55;;
22965;SDS011;11649;48.090;9.754;2023-03-01T11:13:31;33.75;;;20.55;;
22965;SDS011;11649;48.090;9.754;2023-03-01T11:15:59;29.75;;;19.20;;
22965;SDS011;11649;48.090;9.754;2023-03-01T11:18:32;28.88;;;18.85;;
22965;SDS011;11649;48.090;9.754;2023-03-01T11:21:13;32.65;;;19.90;;
22965;SDS011;11649;48.090;9.754;2023-03-01T11:23:41;31.90;;;20.45;;
22965;SDS011;11649;48.090;9.754;2023-03-01T11:26:12;31.77;;;19.98;;
22965;SDS011;11649;48.090;9.754;2023-03-01T11:28:41;30.27;;;19.05;;
22965;SDS011;11649;48.090;9.754;2023-03-01T11:31:10;30.63;;;20.17;;
22965;SDS011;11649;48.090;9.754;2023-03-01T11:36:46;30.75;;;19.10;;
22965;SDS011;11649;48.090;9.754;2023-03-01T11:39:39;32.35;;;19.80;;
22965;SDS011;11649;48.090;9.754;2023-03-01T11:42:21;31.67;;;19.73;;
22965;SDS011;11649;48.090;9.754;2023-03-01T11:44:54;30.98;;;19.20;;
22965;SDS011;11649;48.090;9.754;2023-03-01T11:47:29;33.22;;;19.85;;
22965;SDS011;11649;48.090;9.754;2023-03-01T11:58:45;27.83;;;19.05;;
22965;SDS011;11649;48.090;9.754;2023-03-01T12:01:26;32.10;;;19.92;;
22965;SDS011;11649;48.090;9.754;2023-03-01T12:07:25;31.75;;;20.50;;
22965;SDS011;11649;48.090;9.754;2023-03-01T12:10:20;27.45;;;18.90;;
22965;SDS011;11649;48.090;9.754;2023-03-01T12:15:51;29.60;;;19.08;;
22965;SDS011;11649;48.090;9.754;2023-03-01T12:21:30;20.40;;;14.13;;
22965;SDS011;11649;48.090;9.754;2023-03-01T12:24:43;29.63;;;20.08;;
22965;SDS011;11649;48.090;9.754;2023-03-01T12:27:27;27.88;;;18.70;;
22965;SDS011;11649;48.090;9.754;2023-03-01T12:41:36;26.05;;;18.10;;
22965;SDS011;11649;48.090;9.754;2023-03-01T12:46:54;30.17;;;19.10;;
22965;SDS011;11649;48.090;9.754;2023-03-01T12:49:25;29.42;;;19.23;;
22965;SDS011;11649;48.090;9.754;2023-03-01T12:52:02;28.70;;;19.33;;
22965;SDS011;11649;48.090;9.754;2023-03-01T12:54:42;24.23;;;16.65;;
22965;SDS011;11649;48.090;9.754;2023-03-01T13:05:43;26.63;;;17.35;;
22965;SDS011;11649;48.090;9.754;2023-03-01T13:08:26;28.45;;;19.27;;
22965;SDS011;11649;48.090;9.754;2023-03-01T13:11:31;25.98;;;18.08;;
22965;SDS011;11649;48.090;9.754;2023-03-01T13:16:49;27.30;;;17.52;;
22965;SDS011;11649;48.090;9.754;2023-03-01T13:19:21;24.77;;;16.65;;
22965;SDS011;11649;48.090;9.754;2023-03-01T13:21:50;27.75;;;18.73;;
22965;SDS011;11649;48.090;9.754;2023-03-01T13:29:44;25.67;;;17.55;;
22965;SDS011;11649;48.090;9.754;2023-03-01T13:37:46;32.13;;;19.88;;
22965;SDS011;11649;48.090;9.754;2023-03-01T13:42:45;27.58;;;18.67;;
22965;SDS011;11649;48.090;9.754;2023-03-01T13:45:40;26.33;;;18.27;;
22965;SDS011;11649;48.090;9.754;2023-03-01T13:48:16;24.17;;;17.48;;
22965;SDS011;11649;48.090;9.754;2023-03-01T13:50:51;27.05;;;19.02;;
22965;SDS011;11649;48.090;9.754;2023-03-01T13:53:22;27.25;;;19.08;;
22965;SDS011;11649;48.090;9.754;2023-03-01T13:55:54;26.05;;;19.30;;
22965;SDS011;11649;48.090;9.754;2023-03-01T13:58:43;26.05;;;19.95;;
22965;SDS011;11649;48.090;9.754;2023-03-01T14:03:54;24.65;;;18.90;;
22965;SDS011;11649;48.090;9.754;2023-03-01T14:06:25;22.75;;;18.17;;
22965;SDS011;11649;48.090;9.754;2023-03-01T14:12:59;22.67;;;18.27;;
22965;SDS011;11649;48.090;9.754;2023-03-01T14:18:10;21.42;;;17.65;;
22965;SDS011;11649;48.090;9.754;2023-03-01T14:20:46;20.87;;;16.53;;
22965;SDS011;11649;48.090;9.754;2023-03-01T14:23:18;21.95;;;17.70;;
22965;SDS011;11649;48.090;9.754;2023-03-01T14:25:56;25.27;;;19.80;;
22965;SDS011;11649;48.090;9.754;2023-03-01T14:28:25;23.75;;;18.58;;
22965;SDS011;11649;48.090;9.754;2023-03-01T14:30:54;23.80;;;17.88;;
22965;SDS011;11649;48.090;9.754;2023-03-01T14:35:55;24.92;;;19.10;;
22965;SDS011;11649;48.090;9.754;2023-03-01T14:41:11;27.15;;;20.27;;
22965;SDS011;11649;48.090;9.754;2023-03-01T14:43:42;27.58;;;20.67;;
22965;SDS011;11649;48.090;9.754;2023-03-01T14:46:20;25.42;;;19.77;;
22965;SDS011;11649;48.090;9.754;2023-03-01T14:48:54;26.25;;;19.65;;
22965;SDS011;11649;48.090;9.754;2023-03-01T14:51:27;24.75;;;19.17;;
22965;SDS011;11649;48.090;9.754;2023-03-01T14:53:54;25.88;;;19.60;;
22965;SDS011;11649;48.090;9.754;2023-03-01T14:56:22;22.02;;;18.05;;
22965;SDS011;11649;48.090;9.754;2023-03-01T14:58:52;25.33;;;19.48;;
22965;SDS011;11649;48.090;9.754;2023-03-01T15:01:23;25.45;;;18.00;;
22965;SDS011;11649;48.090;9.754;2023-03-01T15:03:51;25.52;;;19.70;;
22965;SDS011;11649;48.090;9.754;2023-03-01T15:06:19;25.63;;;20.08;;
22965;SDS011;11649;48.090;9.754;2023-03-01T15:08:49;25.98;;;19.35;;
22965;SDS011;11649;48.090;9.754;2023-03-01T15:11:28;22.83;;;18.10;;
22965;SDS011;11649;48.090;9.754;2023-03-01T15:13:57;23.23;;;17.15;;
22965;SDS011;11649;48.090;9.754;2023-03-01T15:19:03;25.92;;;19.02;;
22965;SDS011;11649;48.090;9.754;2023-03-01T15:24:07;29.48;;;19.75;;
22965;SDS011;11649;48.090;9.754;2023-03-01T15:26:39;26.60;;;19.15;;
22965;SDS011;11649;48.090;9.754;2023-03-01T15:29:15;28.17;;;20.42;;
22965;SDS011;11649;48.090;9.754;2023-03-01T15:31:55;27.75;;;19.80;;
22965;SDS011;11649;48.090;9.754;2023-03-01T15:34:30;26.73;;;19.60;;
22965;SDS011;11649;48.090;9.754;2023-03-01T15:37:06;22.95;;;17.38;;
22965;SDS011;11649;48.090;9.754;2023-03-01T15:43:36;27.30;;;20.45;;
22965;SDS011;11649;48.090;9.754;2023-03-01T15:46:04;28.02;;;19.75;;
22965;SDS011;11649;48.090;9.754;2023-03-01T15:48:31;29.55;;;20.40;;
22965;SDS011;11649;48.090;9.754;2023-03-01T15:50:58;29.58;;;20.95;;
22965;SDS011;11649;48.090;9.754;2023-03-01T15:53:25;30.52;;;21.08;;
22965;SDS011;11649;48.090;9.754;2023-03-01T15:55:53;29.45;;;19.92;;
22965;SDS011;11649;48.090;9.754;2023-03-01T15:58:24;30.88;;;21.23;;
22965;SDS011;11649;48.090;9.754;2023-03-01T16:00:52;31.55;;;22.20;;
22965;SDS011;11649;48.090;9.754;2023-03-01T16:03:26;29.73;;;20.30;;
22965;SDS011;11649;48.090;9.754;2023-03-01T16:05:54;28.13;;;19.63;;
22965;SDS011;11649;48.090;9.754;2023-03-01T16:08:21;26.35;;;19.80;;
22965;SDS011;11649;48.090;9.754;2023-03-01T16:10:48;25.48;;;18.80;;
22965;SDS011;11649;48.090;9.754;2023-03-01T16:13:17;31.83;;;21.98;;
22965;SDS011;11649;48.090;9.754;2023-03-01T16:15:44;27.67;;;20.08;;
22965;SDS011;11649;48.090;9.754;2023-03-01T16:18:10;27.92;;;20.52;;
22965;SDS011;11649;48.090;9.754;2023-03-01T16:20:38;29.27;;;19.52;;
22965;SDS011;11649;48.090;9.754;2023-03-01T16:23:07;30.02;;;19.98;;
22965;SDS011;11649;48.090;9.754;2023-03-01T16:25:36;28.33;;;19.77;;
22965;SDS011;11649;48.090;9.754;2023-03-01T16:28:04;27.88;;;20.40;;
22965;SDS011;11649;48.090;9.754;2023-03-01T16:30:35;36.83;;;23.90;;
22965;SDS011;11649;48.090;9.754;2023-03-01T16:33:03;30.98;;;20.50;;
22965;SDS011;11649;48.090;9.754;2023-03-01T16:35:51;30.65;;;20.58;;
22965;SDS011;11649;48.090;9.754;2023-03-01T16:38:18;30.02;;;20.17;;
22965;SDS011;11649;48.090;9.754;2023-03-01T16:40:49;29.33;;;21.27;;
22965;SDS011;11649;48.090;9.754;2023-03-01T16:43:17;31.42;;;20.58;;
22965;SDS011;11649;48.090;9.754;2023-03-01T16:45:44;35.15;;;22.42;;
22965;SDS011;11649;48.090;9.754;2023-03-01T16:48:12;33.35;;;22.17;;